createdAt,value
2022-10-17T00:00:33.672Z,100.00
2022-10-17T00:03:36.552Z,100.00
2022-10-17T00:06:38.083Z,100.00
2022-10-17T00:09:43.725Z,100.00
2022-10-17T00:12:45.173Z,100.00
2022-10-17T00:15:46.607Z,100.00
2022-10-17T00:18:48.111Z,100.00
2022-10-17T00:21:49.799Z,100.00
2022-10-17T00:24:51.349Z,100.00
2022-10-17T00:27:52.817Z,100.00
2022-10-17T00:30:59.912Z,100.00
2022-10-17T00:34:01.556Z,100.00
2022-10-17T00:37:03.485Z,100.00
2022-10-17T00:40:06.431Z,100.00
2022-10-17T00:43:18.137Z,100.00
2022-10-17T00:46:21.395Z,100.00
2022-10-17T00:49:26.125Z,100.00
2022-10-17T00:52:30.202Z,100.00
2022-10-17T00:55:37.153Z,100.00
2022-10-17T00:58:38.783Z,100.00
2022-10-17T01:01:42.953Z,100.00
2022-10-17T01:04:47.577Z,100.00
2022-10-17T01:07:52.436Z,100.00
2022-10-17T01:11:18.660Z,100.00
2022-10-17T01:14:41.612Z,100.00
2022-10-17T01:18:08.528Z,100.00
2022-10-17T01:21:30.494Z,100.00
2022-10-17T01:24:50.989Z,100.00
2022-10-17T01:28:09.362Z,100.00
2022-10-17T01:31:13.921Z,100.00
2022-10-17T01:34:22.424Z,100.00
2022-10-17T01:37:31.907Z,100.00
2022-10-17T01:40:59.133Z,100.00
2022-10-17T01:44:38.132Z,100.00
2022-10-17T01:47:41.929Z,100.00
2022-10-17T01:50:54.368Z,100.00
2022-10-17T01:54:21.492Z,100.00
2022-10-17T01:57:29.442Z,100.00
2022-10-17T02:00:32.943Z,100.00
2022-10-17T02:03:35.558Z,100.00
2022-10-17T02:06:40.374Z,100.00
2022-10-17T02:09:45.893Z,100.00
2022-10-17T02:13:05.279Z,100.00
2022-10-17T02:16:28.845Z,100.00
2022-10-17T02:19:36.747Z,100.00
2022-10-17T02:22:47.423Z,100.00
2022-10-17T02:25:56.289Z,100.00
2022-10-17T02:29:09.067Z,100.00
2022-10-17T02:32:54.900Z,100.00
2022-10-17T02:36:03.060Z,100.00
2022-10-17T02:39:08.749Z,100.00
2022-10-17T02:42:13.048Z,100.00
2022-10-17T02:45:15.771Z,100.00
2022-10-17T02:48:38.743Z,100.00
2022-10-17T02:52:12.776Z,100.00
2022-10-17T02:55:20.403Z,100.00
2022-10-17T02:58:31.977Z,100.00
2022-10-17T03:01:36.047Z,100.00
2022-10-17T03:04:42.987Z,100.00
2022-10-17T03:07:44.686Z,100.00
2022-10-17T03:10:46.413Z,100.00
2022-10-17T03:13:48.229Z,100.00
2022-10-17T03:16:51.491Z,100.00
2022-10-17T03:19:53.360Z,100.00
2022-10-17T03:22:54.870Z,100.00
2022-10-17T03:25:56.730Z,100.00
2022-10-17T03:28:58.340Z,100.00
2022-10-17T03:32:01.117Z,100.00
2022-10-17T03:35:02.747Z,100.00
2022-10-17T03:38:04.569Z,100.00
2022-10-17T03:41:06.792Z,100.00
2022-10-17T03:44:08.307Z,100.00
2022-10-17T03:47:11.927Z,100.00
2022-10-17T03:50:15.863Z,100.00
2022-10-17T03:53:18.605Z,100.00
2022-10-17T03:56:22.967Z,100.00
2022-10-17T03:59:53.835Z,100.00
2022-10-17T04:02:58.045Z,100.00
2022-10-17T04:06:05.043Z,100.00
2022-10-17T04:09:09.956Z,100.00
2022-10-17T04:12:31.925Z,100.00
2022-10-17T04:15:36.287Z,100.00
2022-10-17T04:18:38.191Z,100.00
2022-10-17T04:21:39.692Z,100.00
2022-10-17T04:24:42.790Z,100.00
2022-10-17T04:28:00.521Z,100.00
2022-10-17T04:31:07.130Z,100.00
2022-10-17T04:34:17.133Z,100.00
2022-10-17T04:37:18.899Z,100.00
2022-10-17T04:40:21.781Z,100.00
2022-10-17T04:43:25.908Z,100.00
2022-10-17T04:46:27.744Z,100.00
2022-10-17T04:49:29.285Z,100.00
2022-10-17T04:52:39.124Z,100.00
2022-10-17T04:55:42.366Z,100.00
2022-10-17T04:58:45.506Z,100.00
2022-10-17T05:01:48.992Z,100.00
2022-10-17T05:04:50.635Z,100.00
2022-10-17T05:07:52.336Z,100.00
2022-10-17T05:10:57.129Z,100.00
2022-10-17T05:14:01.049Z,100.00
2022-10-17T05:17:02.725Z,100.00
2022-10-17T05:20:05.459Z,100.00
2022-10-17T05:23:08.342Z,100.00
2022-10-17T05:26:14.956Z,100.00
2022-10-17T05:29:16.569Z,100.00
2022-10-17T05:32:23.004Z,100.00
2022-10-17T05:35:24.831Z,100.00
2022-10-17T05:38:28.113Z,100.00
2022-10-17T05:41:29.915Z,100.00
2022-10-17T05:44:31.424Z,100.00
2022-10-17T05:47:34.913Z,100.00
2022-10-17T05:50:36.792Z,100.00
2022-10-17T05:53:50.780Z,100.00
2022-10-17T05:56:58.184Z,100.00
2022-10-17T06:00:05.430Z,100.00
2022-10-17T06:03:15.615Z,100.00
2022-10-17T06:06:19.315Z,100.00
2022-10-17T06:09:23.069Z,100.00
2022-10-17T06:12:27.389Z,100.00
2022-10-17T06:15:29.454Z,100.00
2022-10-17T06:18:36.584Z,100.00
2022-10-17T06:21:38.894Z,100.00
2022-10-17T06:25:01.931Z,100.00
2022-10-17T06:28:04.753Z,100.00
2022-10-17T06:31:08.552Z,100.00
2022-10-17T06:34:10.976Z,100.00
2022-10-17T06:37:14.062Z,100.00
2022-10-17T06:40:17.204Z,100.00
2022-10-17T06:43:21.397Z,100.00
2022-10-17T06:46:53.315Z,100.00
2022-10-17T06:49:55.936Z,100.00
2022-10-17T06:53:06.260Z,100.00
2022-10-17T06:56:22.864Z,100.00
2022-10-17T06:59:41.882Z,100.00
2022-10-17T07:02:46.361Z,100.00
2022-10-17T07:05:52.248Z,100.00
2022-10-17T07:08:55.647Z,100.00
2022-10-17T07:11:57.593Z,100.00
2022-10-17T07:14:59.107Z,100.00
2022-10-17T07:18:00.583Z,100.00
2022-10-17T07:21:03.957Z,100.00
2022-10-17T07:24:07.451Z,100.00
2022-10-17T07:27:09.273Z,100.00
2022-10-17T07:30:11.317Z,100.00
2022-10-17T07:33:26.424Z,100.00
2022-10-17T07:36:28.039Z,100.00
2022-10-17T07:39:30.897Z,100.00
2022-10-17T07:42:36.111Z,100.00
2022-10-17T07:45:37.972Z,100.00
2022-10-17T07:48:40.160Z,100.00
2022-10-17T07:51:42.988Z,100.00
2022-10-17T07:54:52.577Z,100.00
2022-10-17T07:57:57.092Z,100.00
2022-10-17T08:01:09.427Z,100.00
2022-10-17T08:04:13.837Z,100.00
2022-10-17T08:07:22.987Z,100.00
2022-10-17T08:10:29.718Z,100.00
2022-10-17T08:13:38.678Z,100.00
2022-10-17T08:16:41.032Z,100.00
2022-10-17T08:19:42.698Z,100.00
2022-10-17T08:22:51.720Z,100.00
2022-10-17T08:25:53.313Z,100.00
2022-10-17T08:28:55.111Z,100.00
2022-10-17T08:32:00.227Z,100.00
2022-10-17T08:35:03.578Z,100.00
2022-10-17T08:38:05.180Z,99.43
2022-10-17T08:41:15.139Z,98.87
2022-10-17T08:44:46.269Z,98.51
2022-10-17T08:47:56.632Z,98.06
2022-10-17T08:51:30.464Z,97.35
2022-10-17T08:54:49.761Z,95.44
2022-10-17T08:58:22.294Z,95.31
2022-10-17T09:01:51.087Z,94.57
2022-10-17T09:05:26.565Z,93.32
2022-10-17T09:08:33.884Z,92.92
2022-10-17T09:11:47.169Z,92.09
2022-10-17T09:15:11.115Z,91.37
2022-10-17T09:18:55.212Z,90.49
2022-10-17T09:22:23.035Z,89.47
2022-10-17T09:25:35.774Z,89.51
2022-10-17T09:28:40.449Z,90.51
2022-10-17T09:31:54.171Z,90.50
2022-10-17T09:34:58.357Z,89.50
2022-10-17T09:38:25.109Z,88.46
2022-10-17T09:41:44.841Z,87.82
2022-10-17T09:44:57.076Z,85.50
2022-10-17T09:48:21.521Z,84.31
2022-10-17T09:51:26.491Z,83.20
2022-10-17T09:54:40.231Z,82.32
2022-10-17T09:57:52.470Z,82.29
2022-10-17T10:01:24.817Z,81.79
2022-10-17T10:04:30.465Z,79.21
2022-10-17T10:07:42.043Z,77.55
2022-10-17T10:10:45.249Z,76.02
2022-10-17T10:13:49.172Z,72.94
2022-10-17T10:16:53.530Z,69.92
2022-10-17T10:19:55.516Z,69.71
2022-10-17T10:23:19.474Z,67.68
2022-10-17T10:26:25.772Z,68.02
2022-10-17T10:29:28.903Z,66.36
2022-10-17T10:32:36.911Z,62.91
2022-10-17T10:35:38.685Z,60.09
2022-10-17T10:38:42.499Z,58.48
2022-10-17T10:41:50.429Z,56.87
2022-10-17T10:44:53.937Z,56.63
2022-10-17T10:47:58.848Z,56.33
2022-10-17T10:51:16.952Z,54.21
2022-10-17T10:54:50.731Z,54.73
2022-10-17T10:57:56.531Z,54.45
2022-10-17T11:01:05.090Z,54.08
2022-10-17T11:04:33.157Z,52.06
2022-10-17T11:07:40.441Z,52.65
2022-10-17T11:11:04.899Z,52.28
2022-10-17T11:14:21.203Z,52.21
2022-10-17T11:17:29.507Z,52.35
2022-10-17T11:20:58.036Z,52.05
2022-10-17T11:24:19.308Z,52.51
2022-10-17T11:27:20.780Z,52.41
2022-10-17T11:30:26.817Z,52.08
2022-10-17T11:33:45.943Z,52.13
2022-10-17T11:36:52.743Z,52.44
2022-10-17T11:39:59.916Z,52.63
2022-10-17T11:43:37.727Z,52.55
2022-10-17T11:46:42.456Z,52.19
2022-10-17T11:51:59.791Z,51.98
2022-10-17T11:53:27.341Z,51.98
2022-10-17T11:56:46.596Z,50.97
2022-10-17T11:59:59.769Z,52.16
2022-10-17T12:03:18.895Z,51.19
2022-10-17T12:06:35.367Z,51.70
2022-10-17T12:10:02.500Z,52.26
2022-10-17T12:13:28.592Z,50.59
2022-10-17T12:16:30.056Z,50.89
2022-10-17T12:19:40.530Z,51.24
2022-10-17T12:22:49.268Z,50.23
2022-10-17T12:25:53.699Z,50.74
2022-10-17T12:28:57.331Z,50.13
2022-10-17T12:32:12.119Z,49.90
2022-10-17T12:35:21.187Z,49.82
2022-10-17T12:38:27.654Z,49.87
2022-10-17T12:41:38.265Z,49.40
2022-10-17T12:44:42.377Z,49.59
2022-10-17T12:47:43.850Z,49.66
2022-10-17T12:54:47.056Z,48.89
2022-10-17T12:58:11.735Z,49.21
2022-10-17T13:01:24.091Z,48.87
2022-10-17T13:04:28.009Z,49.15
2022-10-17T13:07:29.994Z,48.60
2022-10-17T13:10:35.437Z,48.43
2022-10-17T13:13:43.262Z,48.56
2022-10-17T13:16:58.455Z,48.83
2022-10-17T13:20:00.593Z,48.74
2022-10-17T13:23:02.275Z,48.93
2022-10-17T13:26:15.225Z,48.44
2022-10-17T13:29:16.814Z,48.06
2022-10-17T13:32:18.284Z,48.42
2022-10-17T13:35:41.998Z,48.25
2022-10-17T13:38:49.261Z,47.82
2022-10-17T13:41:53.961Z,48.05
2022-10-17T13:44:57.097Z,48.04
2022-10-17T13:48:03.141Z,48.57
2022-10-17T13:51:10.346Z,48.63
2022-10-17T13:54:40.110Z,48.41
2022-10-17T13:57:41.664Z,48.37
2022-10-17T14:00:44.905Z,48.73
2022-10-17T14:03:49.001Z,48.85
2022-10-17T14:06:52.770Z,49.10
2022-10-17T14:09:54.341Z,49.10
2022-10-17T14:12:56.899Z,48.57
2022-10-17T14:16:01.502Z,47.90
2022-10-17T14:19:04.253Z,47.81
2022-10-17T14:22:22.531Z,47.87
2022-10-17T14:25:27.077Z,47.88
2022-10-17T14:28:29.044Z,47.71
2022-10-17T14:31:35.575Z,47.24
2022-10-17T14:34:40.596Z,45.21
2022-10-17T14:37:48.740Z,43.74
2022-10-17T14:40:52.521Z,42.96
2022-10-17T14:44:03.520Z,43.97
2022-10-17T14:47:38.041Z,45.78
2022-10-17T14:50:32.177Z,46.68
2022-10-17T14:53:33.872Z,47.29
2022-10-17T14:56:41.473Z,47.71
2022-10-17T14:59:53.832Z,48.04
2022-10-17T15:02:56.422Z,48.30
2022-10-17T15:05:58.444Z,48.56
2022-10-17T15:09:00.669Z,48.93
2022-10-17T15:12:04.137Z,49.58
2022-10-17T15:15:06.156Z,50.13
2022-10-17T15:18:11.061Z,50.36
2022-10-17T15:21:33.272Z,50.57
2022-10-17T15:24:35.205Z,50.80
2022-10-17T15:27:36.936Z,51.41
2022-10-17T15:30:53.425Z,51.67
2022-10-17T15:33:55.826Z,51.73
2022-10-17T15:36:58.597Z,51.86
2022-10-17T15:40:00.396Z,52.42
2022-10-17T15:43:01.874Z,52.77
2022-10-17T15:46:03.831Z,53.48
2022-10-17T15:49:09.838Z,54.83
2022-10-17T15:52:11.405Z,56.62
2022-10-17T15:55:13.202Z,59.03
2022-10-17T15:58:19.232Z,61.49
2022-10-17T16:01:26.310Z,63.23
2022-10-17T16:04:29.245Z,65.86
2022-10-17T16:07:30.930Z,67.77
2022-10-17T16:10:33.538Z,68.32
2022-10-17T16:13:34.998Z,69.24
2022-10-17T16:16:44.035Z,70.50
2022-10-17T16:19:45.815Z,71.19
2022-10-17T16:22:48.617Z,72.87
2022-10-17T16:25:50.185Z,74.41
2022-10-17T16:28:51.730Z,75.67
2022-10-17T16:31:53.272Z,77.27
2022-10-17T16:34:54.837Z,78.04
2022-10-17T16:37:57.780Z,79.35
2022-10-17T16:40:59.232Z,81.12
2022-10-17T16:44:03.925Z,82.27
2022-10-17T16:47:05.375Z,83.05
2022-10-17T16:50:07.326Z,83.65
2022-10-17T16:53:08.812Z,84.17
2022-10-17T16:56:13.004Z,85.02
2022-10-17T16:59:14.456Z,85.79
2022-10-17T17:02:18.911Z,87.04
2022-10-17T17:05:22.985Z,87.29
2022-10-17T17:08:24.487Z,87.69
2022-10-17T17:11:27.621Z,88.34
2022-10-17T17:14:29.067Z,88.79
2022-10-17T17:17:48.118Z,89.91
2022-10-17T17:20:50.901Z,90.62
2022-10-17T17:23:52.696Z,90.69
2022-10-17T17:26:55.628Z,90.85
2022-10-17T17:29:57.151Z,91.87
2022-10-17T17:32:59.977Z,93.12
2022-10-17T17:36:02.015Z,93.45
2022-10-17T17:39:07.587Z,93.50
2022-10-17T17:42:09.158Z,94.32
2022-10-17T17:45:16.841Z,94.73
2022-10-17T17:48:42.453Z,95.51
2022-10-17T17:51:46.551Z,96.01
2022-10-17T17:54:48.142Z,95.92
2022-10-17T17:57:49.853Z,96.20
2022-10-17T18:00:51.468Z,96.70
2022-10-17T18:03:56.624Z,96.84
2022-10-17T18:06:58.090Z,97.54
2022-10-17T18:09:59.845Z,98.00
2022-10-17T18:13:01.449Z,98.42
2022-10-17T18:16:04.187Z,98.17
2022-10-17T18:19:08.794Z,98.57
2022-10-17T18:22:10.672Z,98.77
2022-10-17T18:25:12.127Z,99.36
2022-10-17T18:28:13.612Z,99.76
2022-10-17T18:31:24.311Z,99.58
2022-10-17T18:34:27.217Z,100.00
2022-10-17T18:37:28.679Z,100.00
2022-10-17T18:40:30.219Z,100.00
2022-10-17T18:43:36.686Z,100.00
2022-10-17T18:46:42.737Z,100.00
2022-10-17T18:49:44.325Z,100.00
2022-10-17T18:52:47.827Z,100.00
2022-10-17T18:55:51.221Z,100.00
2022-10-17T18:58:53.536Z,100.00
2022-10-17T19:01:55.357Z,100.00
2022-10-17T19:04:57.128Z,100.00
2022-10-17T19:07:58.668Z,100.00
2022-10-17T19:11:15.132Z,100.00
2022-10-17T19:14:16.851Z,100.00
2022-10-17T19:17:19.315Z,100.00
2022-10-17T19:20:20.828Z,100.00
2022-10-17T19:23:22.340Z,100.00
2022-10-17T19:26:24.896Z,100.00
2022-10-17T19:29:28.152Z,100.00
2022-10-17T19:32:31.081Z,100.00
2022-10-17T19:35:33.918Z,100.00
2022-10-17T19:38:48.965Z,100.00
2022-10-17T19:41:53.683Z,100.00
2022-10-17T19:44:55.133Z,100.00
2022-10-17T19:47:56.644Z,100.00
2022-10-17T19:50:58.551Z,100.00
2022-10-17T19:54:01.198Z,100.00
2022-10-17T19:57:06.778Z,100.00
2022-10-17T20:00:11.637Z,100.00
2022-10-17T20:03:13.138Z,100.00
2022-10-17T20:06:15.461Z,100.00
2022-10-17T20:09:17.326Z,100.00
2022-10-17T20:12:19.206Z,100.00
2022-10-17T20:15:20.681Z,100.00
2022-10-17T20:18:22.721Z,100.00
2022-10-17T20:21:27.358Z,100.00
2022-10-17T20:24:28.908Z,100.00
2022-10-17T20:27:30.429Z,100.00
2022-10-17T20:30:31.955Z,100.00
2022-10-17T20:33:33.438Z,100.00
2022-10-17T20:36:37.421Z,100.00
2022-10-17T20:39:39.159Z,100.00
2022-10-17T20:42:40.629Z,100.00
2022-10-17T20:45:50.839Z,100.00
2022-10-17T20:48:54.714Z,100.00
2022-10-17T20:51:56.250Z,100.00
2022-10-17T20:54:57.736Z,100.00
2022-10-17T20:57:59.556Z,100.00
2022-10-17T21:01:06.402Z,100.00
2022-10-17T21:04:40.308Z,100.00
2022-10-17T21:07:30.265Z,100.00
2022-10-17T21:10:35.415Z,100.00
2022-10-17T21:13:37.917Z,100.00
2022-10-17T21:16:41.231Z,100.00
2022-10-17T21:19:42.708Z,100.00
2022-10-17T21:22:44.277Z,100.00
2022-10-17T21:25:45.754Z,100.00
2022-10-17T21:28:48.593Z,100.00
2022-10-17T21:31:50.409Z,100.00
2022-10-17T21:34:51.930Z,100.00
2022-10-17T21:37:53.409Z,100.00
2022-10-17T21:40:56.081Z,100.00
2022-10-17T21:44:01.202Z,100.00
2022-10-17T21:47:02.853Z,100.00
2022-10-17T21:50:04.647Z,100.00
2022-10-17T21:53:08.871Z,100.00
2022-10-17T21:56:13.017Z,100.00
2022-10-17T21:59:14.932Z,100.00
2022-10-17T22:02:16.496Z,100.00
2022-10-17T22:05:18.048Z,100.00
2022-10-17T22:08:19.620Z,100.00
2022-10-17T22:11:24.041Z,100.00
2022-10-17T22:14:27.061Z,100.00
2022-10-17T22:17:28.767Z,100.00
2022-10-17T22:20:30.517Z,100.00
2022-10-17T22:23:32.384Z,100.00
2022-10-17T22:26:35.817Z,100.00
2022-10-17T22:29:37.408Z,100.00
2022-10-17T22:32:38.960Z,100.00
2022-10-17T22:35:42.136Z,100.00
2022-10-17T22:38:43.633Z,100.00
2022-10-17T22:41:45.196Z,100.00
2022-10-17T22:44:47.769Z,100.00
2022-10-17T22:47:49.316Z,100.00
2022-10-17T22:50:52.440Z,100.00
2022-10-17T22:53:53.920Z,100.00
2022-10-17T22:56:55.371Z,100.00
2022-10-17T22:59:56.857Z,100.00
2022-10-17T23:02:58.369Z,100.00
2022-10-17T23:06:00.691Z,100.00
2022-10-17T23:09:02.488Z,100.00
2022-10-17T23:12:04.488Z,100.00
2022-10-17T23:15:06.427Z,100.00
2022-10-17T23:18:09.658Z,100.00
2022-10-17T23:21:11.861Z,100.00
2022-10-17T23:24:13.361Z,100.00
2022-10-17T23:27:14.844Z,100.00
2022-10-17T23:30:16.703Z,100.00
2022-10-17T23:33:18.213Z,100.00
2022-10-17T23:36:21.165Z,100.00
2022-10-17T23:39:22.853Z,100.00
2022-10-17T23:42:24.440Z,100.00
2022-10-17T23:45:26.024Z,100.00
2022-10-17T23:48:28.135Z,100.00
2022-10-17T23:51:29.760Z,100.00
2022-10-17T23:54:31.727Z,100.00
2022-10-17T23:57:33.698Z,100.00
